Terminal Aerodrome Forecast
Issued by NWS

Home | Current Version | Previous Version | Text Only | Print | Product List | Glossary On
Versions: 1 2 3 4 5 6 7 8 9 10 11 12 13 14 15 16 17 18
000
FTUS46 KSEW 312000 AAA
TAFBFI
TAF AMD
KBFI 312006Z 3120/0118 VRB06KT P6SM VCSH SCT011 OVC040
      TEMPO 3120/3122 5SM -SHRA BR OVC012
     FM312200 21004KT P6SM SCT015 OVC040
      TEMPO 3122/3124 5SM -SHRA OVC030
     FM010000 12003KT P6SM VCSH OVC030
     FM010900 14002KT P6SM OVC018=

USA.gov is the U.S. government's official web portal to all federal, state and local government web resources and services.